• Join FlightAware (Why Join?)
  • Login
  • US Flag 
03:28PM EDT


 

Airport Tracker/Info


-or-


 

Live Flight TrackerFlight Track Log ✈ UPS1301 ✈ 17-Apr-2014 ✈ KATL - KSDF

Flight Track Log - Related Links

Times and Time Zones

All times are in EDT time to prevent confusion due to time zone crossing. See the UPS1301 flight status page for this flight to view local times or setup timezone preferences in your user account.

Time Position Orientation Groundspeed Altitude Reporting Facility
EDT Latitude Longitude Course Direction KTS MPH feet Rate Location/Type
10:55PM 33.6500 -84.4000 90° East 142 163 2,700  Level Atlanta TRACON
10:56PM 33.6500 -84.3333 90° East 198 228 4,700 1,920 Climbing Atlanta TRACON
10:57PM 33.6833 -84.2667 59° Northeast 272 313 6,600 2,280 Climbing Atlanta TRACON
11:03PM 34.2096 -84.5506 334° Northwest 409 471 19,800 2,280 Climbing FlightAware ADS-B (KDZJ)
11:03PM 34.2832 -84.5910 340° North 412 474 21,200 1,800 Climbing FlightAware ADS-B (KDZJ)
11:04PM 34.3596 -84.6129 353° North 434 499 22,300 1,680 Climbing FlightAware ADS-B (KDZJ)
11:05PM 34.4388 -84.6212 356° North 439 505 23,400 1,620 Climbing FlightAware ADS-B (KDZJ)
11:05PM 34.5276 -84.6295 356° North 449 517 24,500 1,500 Climbing FlightAware ADS-B (KDZJ)
11:06PM 34.6078 -84.6373 355° North 456 525 25,500 1,560 Climbing FlightAware ADS-B (KDZJ)
11:07PM 34.6993 -84.6462 355° North 470 541 26,600 1,920 Climbing FlightAware ADS-B (KDZJ)
11:07PM 34.7842 -84.6545 355° North 455 524 28,100 2,100 Climbing FlightAware ADS-B (KDZJ)
11:08PM 34.8705 -84.6629 355° North 451 519 29,400 1,380 Climbing FlightAware ADS-B (KDZJ)
11:09PM 34.9546 -84.6712 355° North 455 524 30,000 420 Climbing FlightAware ADS-B (KDZJ)
11:09PM 35.0415 -84.6798 355° North 456 525 30,000  Level FlightAware ADS-B (KDZJ)
11:15PM 35.7215 -84.7489 355° North 456 525 30,000  Level FlightAware ADS-B (KMDQ)
11:17PM 35.9590 -84.7743 355° North 456 525 30,000 -120 Level FlightAware ADS-B (KMDQ)
11:22PM 36.5477 -84.8367 355° North 454 522 29,400 -240 Descending FlightAware ADS-B (KMDQ)
11:22PM 36.6431 -84.8467 355° North 452 520 28,700 -1,560 Descending Indianapolis Center
11:23PM 36.7678 -84.8594 355° North 452 520 26,800 -1,980 Descending Indianapolis Center
11:24PM 36.8903 -84.8728 355° North 449 517 24,700 -2,220 Descending Indianapolis Center
11:25PM 37.0217 -84.8872 355° North 434 499 22,400 -2,160 Descending Indianapolis Center
11:26PM 37.1447 -84.9003 355° North 435 501 20,400 -1,620 Descending Indianapolis Center
11:27PM 37.2689 -84.9133 355° North 443 510 19,200 -2,040 Descending Indianapolis Center
11:28PM 37.3892 -84.9267 355° North 440 506 16,300 -3,300 Descending Indianapolis Center
11:30PM 37.5067 -84.9375 356° North 427 491 12,500 -3,060 Descending Indianapolis Center
11:31PM 37.6114 -84.9497 355° North 388 447 10,100 -1,320 Descending Indianapolis Center
11:32PM 37.6856 -84.9953 334° Northwest 307 353 9,900 -900 Descending Indianapolis Center
11:33PM 37.7364 -85.0672 312° West 277 319 8,300 -960 Descending Indianapolis Center
11:34PM 37.7886 -85.1383 313° West 277 319 8,000 -660 Descending Indianapolis Center
11:35PM 37.8256 -85.2244 299° West 277 319 7,000 -1,080 Descending Indianapolis Center
11:36PM 37.8514 -85.3158 290° West 277 319 5,900 -1,200 Descending Indianapolis Center
11:37PM 37.8772 -85.4053 290° West 276 318 4,600 -1,260 Descending Indianapolis Center
11:38PM 37.9033 -85.4917 291° West 269 310 3,400 -840 Descending Indianapolis Center
11:39PM 37.9253 -85.5728 289° West 257 296 3,000 -240 Descending Indianapolis Center
11:40PM 37.9689 -85.6450 307° West 228 262 3,000  Level Indianapolis Center
11:41PM 38.0203 -85.6869 327° Northwest 222 255 3,000 -300 Level Indianapolis Center
11:42PM 38.0628 -85.7081 339° North 189 217 2,400 -420 Descending Indianapolis Center
11:43PM 38.1058 -85.7225 345° North 184 212 2,200 -240 Descending Indianapolis Center
11:45PM 38.1741 -85.7365 211° Southwest  Level Estimated
11:52PM 38.1741 -85.7365 208° Southwest  Level Estimated
11:53PM 38.1741 -85.7365 208° Southwest  Level Estimated
11:54PM 38.1741 -85.7365 208° Southwest  Level Estimated
11:55PM 38.1741 -85.7365 208° Southwest  Level Estimated
11:56PM 38.1741 -85.7365 208° Southwest  Level Estimated
11:57PM 38.1741 -85.7365 208° Southwest  Level Estimated
11:58PM 38.1741 -85.7365 208° Southwest  Level Estimated
11:59PM 38.1741 -85.7365 208° Southwest  Level Estimated
12:00AM 38.1741 -85.7365 208° Southwest  Level Estimated
12:01AM 38.1741 -85.7365 208° Southwest  Level Estimated